createdAt,value
2023-01-22T00:00:06.855Z,98613.53
2023-01-22T00:05:09.160Z,98613.88
2023-01-22T00:10:12.012Z,98612.97
2023-01-22T00:15:13.699Z,98617.97
2023-01-22T00:20:15.759Z,98616.19
2023-01-22T00:25:17.911Z,98620.50
2023-01-22T00:30:20.368Z,98622.19
2023-01-22T00:35:22.021Z,98626.56
2023-01-22T00:40:23.728Z,98626.75
2023-01-22T00:45:25.348Z,98623.19
2023-01-22T00:50:27.133Z,98620.59
2023-01-22T00:55:28.755Z,98635.28
2023-01-22T01:00:31.034Z,98641.53
2023-01-22T01:05:33.371Z,98633.63
2023-01-22T01:10:35.027Z,98636.22
2023-01-22T01:15:36.712Z,98642.44
2023-01-22T01:20:38.681Z,98646.72
2023-01-22T01:25:42.209Z,98641.41
2023-01-22T01:30:44.837Z,98645.03
2023-01-22T01:35:46.524Z,98657.09
2023-01-22T01:40:48.170Z,98657.06
2023-01-22T01:45:50.077Z,98667.44
2023-01-22T01:51:14.108Z,98660.53
2023-01-22T01:56:23.380Z,98665.03
2023-01-22T02:01:26.265Z,98660.59
2023-01-22T02:06:28.274Z,98671.91
2023-01-22T02:11:32.248Z,98670.34
2023-01-22T02:16:34.088Z,98669.28
2023-01-22T02:21:38.898Z,98678.03
2023-01-22T02:26:42.083Z,98688.38
2023-01-22T02:31:43.799Z,98693.72
2023-01-22T02:36:45.609Z,98694.56
2023-01-22T02:41:47.340Z,98694.34
2023-01-22T02:46:49.034Z,98685.91
2023-01-22T02:51:50.822Z,98693.56
2023-01-22T02:56:52.529Z,98690.97
2023-01-22T03:01:54.347Z,98679.72
2023-01-22T03:06:55.979Z,98684.91
2023-01-22T03:11:59.032Z,98683.28
2023-01-22T03:17:19.416Z,98687.56
2023-01-22T03:22:21.227Z,98689.44
2023-01-22T03:27:24.729Z,98685.16
2023-01-22T03:32:26.423Z,98693.72
2023-01-22T03:37:28.043Z,98682.47
2023-01-22T03:42:29.711Z,98682.59
2023-01-22T03:47:31.385Z,98681.69
2023-01-22T03:52:33.029Z,98676.63
2023-01-22T03:57:34.676Z,98683.38
2023-01-22T04:02:37.877Z,98679.91
2023-01-22T04:07:39.556Z,98684.13
2023-01-22T04:12:41.165Z,98680.78
2023-01-22T04:17:42.872Z,98685.16
2023-01-22T04:22:44.577Z,98684.28
2023-01-22T04:27:46.289Z,98686.13
2023-01-22T04:32:47.952Z,98688.66
2023-01-22T04:37:49.770Z,98683.50
2023-01-22T04:42:51.419Z,98685.22
2023-01-22T04:47:53.078Z,98682.66
2023-01-22T04:52:55.923Z,98685.28
2023-01-22T04:57:59.174Z,98676.63
2023-01-22T05:03:03.011Z,98686.91
2023-01-22T05:08:04.802Z,98683.53
2023-01-22T05:13:07.327Z,98680.91
2023-01-22T05:18:09.066Z,98681.63
2023-01-22T05:23:10.855Z,98685.16
2023-01-22T05:28:12.497Z,98690.44
2023-01-22T05:33:14.113Z,98689.50
2023-01-22T05:38:15.807Z,98699.00
2023-01-22T05:43:17.492Z,98699.91
2023-01-22T05:48:19.158Z,98704.28
2023-01-22T05:53:20.783Z,98700.75
2023-01-22T05:58:22.495Z,98709.38
2023-01-22T06:03:24.858Z,98706.78
2023-01-22T06:08:27.738Z,98711.06
2023-01-22T06:13:30.152Z,98715.38
2023-01-22T06:18:32.003Z,98714.56
2023-01-22T06:23:34.372Z,98716.31
2023-01-22T06:28:36.029Z,98719.78
2023-01-22T06:33:38.818Z,98724.22
2023-01-22T06:38:40.490Z,98729.44
2023-01-22T06:43:42.249Z,98724.09
2023-01-22T06:48:44.041Z,98742.53
2023-01-22T06:53:46.290Z,98742.34
2023-01-22T06:58:47.918Z,98751.91
2023-01-22T07:03:49.544Z,98750.28
2023-01-22T07:08:52.162Z,98755.47
2023-01-22T07:13:53.855Z,98761.50
2023-01-22T07:18:55.618Z,98761.50
2023-01-22T07:23:57.324Z,98757.06
2023-01-22T07:28:59.001Z,98769.28
2023-01-22T07:34:00.695Z,98776.16
2023-01-22T07:39:06.349Z,98766.56
2023-01-22T07:44:08.614Z,98781.38
2023-01-22T07:49:11.365Z,98792.63
2023-01-22T07:54:13.052Z,98803.84
2023-01-22T07:59:14.711Z,98809.91
2023-01-22T08:04:16.379Z,98818.59
2023-01-22T08:09:24.786Z,98822.91
2023-01-22T08:14:26.598Z,98834.22
2023-01-22T08:19:29.659Z,98840.34
2023-01-22T08:24:31.874Z,98846.34
2023-01-22T08:29:33.614Z,98851.56
2023-01-22T08:34:35.314Z,98861.97
2023-01-22T08:39:36.990Z,98860.22
2023-01-22T08:44:38.781Z,98868.00
2023-01-22T08:49:40.646Z,98867.19
2023-01-22T08:54:42.470Z,98867.06
2023-01-22T08:59:52.566Z,98871.44
2023-01-22T09:05:01.561Z,98876.59
2023-01-22T09:10:04.397Z,98893.94
2023-01-22T09:15:07.736Z,98894.88
2023-01-22T09:20:09.882Z,98893.94
2023-01-22T09:25:11.844Z,98892.16
2023-01-22T09:30:17.185Z,98895.78
2023-01-22T09:35:19.220Z,98904.31
2023-01-22T09:40:43.215Z,98908.63
2023-01-22T09:45:45.635Z,98906.78
2023-01-22T09:50:48.461Z,98918.09
2023-01-22T09:55:55.243Z,98912.03
2023-01-22T10:01:05.735Z,98909.41
2023-01-22T10:06:11.156Z,98910.31
2023-01-22T10:11:12.846Z,98917.22
2023-01-22T10:16:14.524Z,98921.69
2023-01-22T10:21:16.215Z,98922.44
2023-01-22T10:26:29.322Z,98925.94
2023-01-22T10:31:36.757Z,98924.16
2023-01-22T10:36:39.710Z,98925.88
2023-01-22T10:41:43.139Z,98936.25
2023-01-22T10:46:46.570Z,98933.66
2023-01-22T10:51:58.072Z,98945.84
2023-01-22T10:57:27.007Z,98938.88
2023-01-22T11:02:29.760Z,98939.78
2023-01-22T11:07:33.442Z,98926.72
2023-01-22T11:12:46.597Z,98938.03
2023-01-22T11:17:56.065Z,98938.88
2023-01-22T11:23:03.908Z,98928.50
2023-01-22T11:28:21.488Z,98939.72
2023-01-22T11:33:37.326Z,98939.72
2023-01-22T11:38:51.506Z,98939.66
2023-01-22T11:44:10.666Z,98940.56
2023-01-22T11:49:38.370Z,98942.31
2023-01-22T11:54:46.103Z,98933.66
2023-01-22T12:00:10.473Z,98941.41
2023-01-22T12:05:20.810Z,98933.59
2023-01-22T12:10:36.834Z,98932.59
2023-01-22T12:15:55.295Z,98929.97
2023-01-22T12:21:26.361Z,98926.44
2023-01-22T12:26:33.243Z,98941.25
2023-01-22T12:31:38.518Z,98948.28
2023-01-22T12:36:41.290Z,98956.03
2023-01-22T12:41:53.819Z,98954.41
2023-01-22T12:46:58.658Z,98954.41
2023-01-22T12:52:00.469Z,98956.16
2023-01-22T12:57:14.550Z,98956.88
2023-01-22T13:02:46.262Z,98963.06
2023-01-22T13:07:50.187Z,98957.84
2023-01-22T13:12:58.924Z,98963.00
2023-01-22T13:18:20.832Z,98963.84
2023-01-22T13:23:23.207Z,98968.22
2023-01-22T13:28:26.970Z,98978.66
2023-01-22T13:33:30.030Z,98988.25
2023-01-22T13:38:35.065Z,98980.44
2023-01-22T13:43:38.836Z,98974.31
2023-01-22T13:48:41.772Z,98980.41
2023-01-22T13:53:51.467Z,98988.28
2023-01-22T13:59:35.347Z,98999.56
2023-01-22T14:04:37.582Z,99016.03
2023-01-22T14:09:40.610Z,99039.63
2023-01-22T14:14:43.620Z,99049.19
2023-01-22T14:19:45.473Z,99050.00
2023-01-22T14:24:47.789Z,99048.38
2023-01-22T14:29:51.282Z,99050.97
2023-01-22T14:34:53.908Z,99060.59
2023-01-22T14:39:57.549Z,99055.38
2023-01-22T14:44:59.917Z,99055.31
2023-01-22T14:50:04.605Z,99052.75
2023-01-22T14:55:07.279Z,99044.06
2023-01-22T15:00:13.237Z,99056.25
2023-01-22T15:05:15.470Z,99068.22
2023-01-22T15:10:18.822Z,99064.00
2023-01-22T15:15:28.809Z,99057.97
2023-01-22T15:20:31.075Z,99069.31
2023-01-22T15:25:34.479Z,99071.88
2023-01-22T15:30:36.436Z,99081.47
2023-01-22T15:35:38.125Z,99078.00
2023-01-22T15:40:39.887Z,99090.22
2023-01-22T15:45:42.345Z,99098.03
2023-01-22T15:50:44.531Z,99098.94
2023-01-22T15:55:50.613Z,99104.16
2023-01-22T16:00:52.998Z,99100.69
2023-01-22T16:05:55.084Z,99111.94
2023-01-22T16:10:57.418Z,99107.63
2023-01-22T16:16:14.185Z,99119.78
2023-01-22T16:21:18.007Z,99131.97
2023-01-22T16:26:23.976Z,99129.41
2023-01-22T16:31:29.569Z,99125.00
2023-01-22T16:36:33.678Z,99143.31
2023-01-22T16:41:37.170Z,99145.06
2023-01-22T16:46:42.260Z,99157.28
2023-01-22T16:51:47.721Z,99163.34
2023-01-22T16:56:51.083Z,99165.97
2023-01-22T17:01:56.608Z,99166.78
2023-01-22T17:07:00.605Z,99174.66
2023-01-22T17:12:05.368Z,99192.97
2023-01-22T17:17:09.439Z,99203.31
2023-01-22T17:22:13.776Z,99227.75
2023-01-22T17:27:19.010Z,99214.66
2023-01-22T17:32:23.080Z,99217.25
2023-01-22T17:37:27.030Z,99211.22
2023-01-22T17:42:31.226Z,99213.81
2023-01-22T17:47:33.927Z,99219.06
2023-01-22T17:52:37.218Z,99226.03
2023-01-22T17:57:41.407Z,99219.91
2023-01-22T18:02:44.211Z,99219.91
2023-01-22T18:07:46.628Z,99238.19
2023-01-22T18:12:49.728Z,99259.06
2023-01-22T18:17:53.748Z,99248.63
2023-01-22T18:22:56.325Z,99264.28
2023-01-22T18:27:59.093Z,99272.97
2023-01-22T18:33:01.997Z,99268.63
2023-01-22T18:38:04.320Z,99263.44
2023-01-22T18:43:09.519Z,99262.56
2023-01-22T18:48:16.283Z,99246.91
2023-01-22T18:53:18.755Z,99258.22
2023-01-22T18:58:31.631Z,99267.75
2023-01-22T19:03:33.914Z,99276.47
2023-01-22T19:08:37.733Z,99279.94
2023-01-22T19:13:41.661Z,99286.91
2023-01-22T19:18:47.085Z,99265.19
2023-01-22T19:23:53.858Z,99284.31
2023-01-22T19:28:59.001Z,99277.38
2023-01-22T19:34:02.431Z,99267.78
2023-01-22T19:39:09.662Z,99259.09
2023-01-22T19:44:18.209Z,99276.47
2023-01-22T19:49:21.968Z,99286.91
2023-01-22T19:54:25.233Z,99293.00
2023-01-22T19:59:27.851Z,99299.13
2023-01-22T20:04:34.032Z,99301.72
2023-01-22T20:09:38.211Z,99298.22
2023-01-22T20:14:43.945Z,99312.13
2023-01-22T20:19:46.592Z,99326.06
2023-01-22T20:24:49.583Z,99337.38
2023-01-22T20:29:52.348Z,99331.28
2023-01-22T20:34:55.039Z,99335.66
2023-01-22T20:39:59.399Z,99338.25
2023-01-22T20:45:02.020Z,99343.47
2023-01-22T20:50:06.219Z,99349.56
2023-01-22T20:55:10.589Z,99358.25
2023-01-22T21:00:14.289Z,99350.41
2023-01-22T21:05:17.687Z,99357.38
2023-01-22T21:10:20.597Z,99361.75
2023-01-22T21:15:23.182Z,99375.66
2023-01-22T21:20:26.519Z,99379.13
2023-01-22T21:25:28.993Z,99375.66
2023-01-22T21:30:31.595Z,99365.25
2023-01-22T21:35:33.791Z,99377.41
2023-01-22T21:40:36.945Z,99376.56
2023-01-22T21:46:01.318Z,99394.78
2023-01-22T21:51:03.864Z,99401.78
2023-01-22T21:56:06.453Z,99409.63
2023-01-22T22:01:09.451Z,99404.38
2023-01-22T22:06:13.373Z,99383.50
2023-01-22T22:11:15.049Z,99387.03
2023-01-22T22:16:16.748Z,99395.69
2023-01-22T22:21:18.469Z,99387.84
2023-01-22T22:26:20.109Z,99397.44
2023-01-22T22:31:21.838Z,99389.59
2023-01-22T22:36:26.037Z,99399.19
2023-01-22T22:41:30.505Z,99407.88
2023-01-22T22:46:35.796Z,99404.38
2023-01-22T22:51:39.419Z,99396.56
2023-01-22T22:56:41.094Z,99408.72
2023-01-22T23:01:42.809Z,99400.06
2023-01-22T23:06:46.010Z,99399.19
2023-01-22T23:11:51.698Z,99396.56
2023-01-22T23:16:53.487Z,99394.84
2023-01-22T23:21:58.507Z,99401.78
2023-01-22T23:27:00.222Z,99394.84
2023-01-22T23:32:01.822Z,99408.72
2023-01-22T23:37:03.518Z,99405.25
2023-01-22T23:42:05.168Z,99404.38
2023-01-22T23:47:06.880Z,99389.59
2023-01-22T23:52:08.619Z,99384.38
2023-01-22T23:57:10.215Z,99383.50
